createdAt,value
2018-01-30T00:00:37.900Z,90.36
2018-01-30T00:01:37.981Z,90.51
2018-01-30T00:02:37.912Z,90.5
2018-01-30T00:03:37.958Z,90.68
2018-01-30T00:04:37.981Z,90.52
2018-01-30T00:05:37.983Z,90.59
2018-01-30T00:06:37.978Z,90.33
2018-01-30T00:07:38.188Z,90.63
2018-01-30T00:08:38.906Z,90.55
2018-01-30T00:09:37.962Z,90.65
2018-01-30T00:10:38.015Z,90.42
2018-01-30T00:11:37.940Z,90.68
2018-01-30T00:12:38.137Z,90.85
2018-01-30T00:13:38.132Z,90.75
2018-01-30T00:14:37.895Z,90.85
2018-01-30T00:15:37.969Z,90.62
2018-01-30T00:16:38.386Z,91.17
2018-01-30T00:17:38.034Z,91.44
2018-01-30T00:18:37.961Z,91.35
2018-01-30T00:19:38.135Z,91.79
2018-01-30T00:20:38.109Z,91.64
2018-01-30T00:21:38.349Z,91.66
2018-01-30T00:22:38.053Z,91.83
2018-01-30T00:23:38.030Z,91.92
2018-01-30T00:24:37.989Z,91.77
2018-01-30T00:25:38.173Z,91.74
2018-01-30T00:26:38.673Z,91.53
2018-01-30T00:27:38.116Z,91.68
2018-01-30T00:28:37.981Z,91.7
2018-01-30T00:29:37.924Z,91.87
2018-01-30T00:30:38.064Z,91.79
2018-01-30T00:31:38.125Z,91.86
2018-01-30T00:32:37.974Z,91.81
2018-01-30T00:33:37.972Z,91.99
2018-01-30T00:34:37.960Z,91.91
2018-01-30T00:35:38.202Z,92
2018-01-30T00:36:38.301Z,91.92
2018-01-30T00:37:38.046Z,91.83
2018-01-30T00:38:38.153Z,92.27
2018-01-30T00:39:38.096Z,92.2
2018-01-30T00:40:38.049Z,92.17
2018-01-30T00:41:38.026Z,92.36
2018-01-30T00:42:38.090Z,92.42
2018-01-30T00:43:38.073Z,92.36
2018-01-30T00:44:37.956Z,92.28
2018-01-30T00:45:37.974Z,92.37
2018-01-30T00:46:38.011Z,92.66
2018-01-30T00:47:37.984Z,92.61
2018-01-30T00:48:38.029Z,92.66
2018-01-30T00:49:38.066Z,92.5
2018-01-30T00:50:38.090Z,92.41
2018-01-30T00:51:37.983Z,92.54
2018-01-30T00:52:38.228Z,92.76
2018-01-30T00:53:37.950Z,92.63
2018-01-30T00:54:37.979Z,92.68
2018-01-30T00:55:37.946Z,92.49
2018-01-30T00:56:37.947Z,92.69
2018-01-30T00:57:37.978Z,92.66
2018-01-30T00:58:38.103Z,92.57
2018-01-30T00:59:38.085Z,92.52
2018-01-30T01:00:38.013Z,92.29
2018-01-30T01:01:38.143Z,92.76
2018-01-30T01:02:37.968Z,92.43
2018-01-30T01:03:37.962Z,92.73
2018-01-30T01:04:37.980Z,92.74
2018-01-30T01:05:38.015Z,92.69
2018-01-30T01:06:38.097Z,92.73
2018-01-30T01:07:38.097Z,92.82
2018-01-30T01:08:37.986Z,92.66
2018-01-30T01:09:37.968Z,92.74
2018-01-30T01:10:38.073Z,92.76
2018-01-30T01:11:38.063Z,92.62
2018-01-30T01:12:38.052Z,92.62
2018-01-30T01:13:38.160Z,92.7
2018-01-30T01:14:37.998Z,92.55
2018-01-30T01:15:38.301Z,92.55
2018-01-30T01:16:38.002Z,92.63
2018-01-30T01:17:38.223Z,92.71
2018-01-30T01:18:38.044Z,92.49
2018-01-30T01:19:38.004Z,92.74
2018-01-30T01:20:38.023Z,92.69
2018-01-30T01:21:38.003Z,92.6
2018-01-30T01:22:38.014Z,92.8
2018-01-30T01:23:38.329Z,92.61
2018-01-30T01:24:38.393Z,92.79
2018-01-30T01:25:38.197Z,92.75
2018-01-30T01:26:38.167Z,92.92
2018-01-30T01:27:38.005Z,92.88
2018-01-30T01:28:38.014Z,92.96
2018-01-30T01:29:38.016Z,93.04
2018-01-30T01:30:38.286Z,92.96
2018-01-30T01:31:38.332Z,93.14
2018-01-30T01:32:38.060Z,93.2
2018-01-30T01:33:39.160Z,93
2018-01-30T01:34:38.059Z,93.25
2018-01-30T01:35:38.255Z,92.95
2018-01-30T01:36:38.259Z,93.31
2018-01-30T01:37:38.118Z,93.26
2018-01-30T01:38:38.056Z,93.26
2018-01-30T01:39:38.113Z,93.45
2018-01-30T01:40:38.059Z,93.26
2018-01-30T01:41:38.125Z,93.23
2018-01-30T01:42:38.208Z,93.3
2018-01-30T01:43:38.021Z,93.6
2018-01-30T01:44:38.187Z,93.56
2018-01-30T01:45:38.096Z,93.59
2018-01-30T01:46:38.064Z,93.96
2018-01-30T01:47:39.052Z,93.81
2018-01-30T01:48:38.035Z,93.87
2018-01-30T01:49:38.691Z,94.06
2018-01-30T01:50:38.073Z,94.37
2018-01-30T01:51:38.069Z,94.99
2018-01-30T01:52:38.086Z,95.45
2018-01-30T01:53:38.042Z,95.84
2018-01-30T01:54:38.145Z,95.62
2018-01-30T01:55:38.225Z,96.03
2018-01-30T01:56:38.062Z,95.91
2018-01-30T01:57:38.101Z,96.29
2018-01-30T01:58:38.119Z,96.37
2018-01-30T01:59:38.071Z,96.66
2018-01-30T02:00:38.044Z,96.53
2018-01-30T02:01:38.026Z,96.29
2018-01-30T02:02:38.082Z,96.43
2018-01-30T02:03:38.077Z,96.61
2018-01-30T02:04:38.046Z,96.25
2018-01-30T02:05:38.060Z,95.98
2018-01-30T02:06:38.114Z,95.71
2018-01-30T02:07:38.180Z,95.54
2018-01-30T02:08:38.083Z,95.33
2018-01-30T02:09:38.111Z,94.94
2018-01-30T02:10:38.120Z,94.72
2018-01-30T02:11:38.199Z,94.84
2018-01-30T02:12:38.071Z,94.59
2018-01-30T02:13:38.120Z,94.58
2018-01-30T02:14:38.076Z,94.84
2018-01-30T02:15:38.726Z,94.61
2018-01-30T02:16:38.166Z,94.78
2018-01-30T02:17:38.110Z,94.79
2018-01-30T02:18:38.013Z,95.21
2018-01-30T02:19:38.832Z,95.49
2018-01-30T02:20:38.147Z,95.49
2018-01-30T02:21:38.102Z,95.34
2018-01-30T02:22:38.157Z,95.4
2018-01-30T02:23:39.217Z,95.24
2018-01-30T02:24:38.413Z,95.24
2018-01-30T02:25:38.761Z,95.19
2018-01-30T02:26:38.105Z,94.99
2018-01-30T02:27:38.065Z,94.62
2018-01-30T02:28:38.096Z,94.62
2018-01-30T02:29:38.083Z,95.04
2018-01-30T02:30:38.108Z,95.08
2018-01-30T02:31:38.820Z,94.92
2018-01-30T02:32:38.315Z,95.55
2018-01-30T02:33:38.141Z,95.17
2018-01-30T02:34:38.272Z,95.07
2018-01-30T02:35:38.149Z,95.41
2018-01-30T02:36:38.172Z,95.47
2018-01-30T02:37:38.178Z,95.41
2018-01-30T02:38:38.104Z,95.29
2018-01-30T02:39:38.123Z,95.13
2018-01-30T02:40:38.135Z,95.43
2018-01-30T02:41:38.269Z,95.61
2018-01-30T02:42:38.482Z,95.8
2018-01-30T02:43:38.589Z,95.7
2018-01-30T02:44:38.252Z,95.32
2018-01-30T02:45:38.189Z,95.27
2018-01-30T02:46:38.224Z,95.44
2018-01-30T02:47:38.237Z,95.95
2018-01-30T02:48:38.206Z,95.82
2018-01-30T02:49:38.842Z,95.87
2018-01-30T02:50:38.464Z,95.74
2018-01-30T02:51:38.289Z,95.38
2018-01-30T02:52:38.337Z,95.8
2018-01-30T02:53:38.905Z,96.15
2018-01-30T02:54:38.906Z,95.85
2018-01-30T02:55:38.318Z,96.05
2018-01-30T02:56:38.354Z,95.54
2018-01-30T02:57:38.149Z,95.92
2018-01-30T02:58:38.280Z,96.07
2018-01-30T02:59:38.200Z,96.17
2018-01-30T03:00:38.123Z,96.42
2018-01-30T03:01:38.168Z,96.48
2018-01-30T03:02:38.995Z,96.48
2018-01-30T03:03:38.430Z,96.5
2018-01-30T03:04:38.242Z,96.4
2018-01-30T03:05:38.452Z,96.41
2018-01-30T03:06:38.243Z,96.22
2018-01-30T03:07:37.245Z,96.37
2018-01-30T03:08:37.240Z,96.55
2018-01-30T03:09:37.292Z,96.49
2018-01-30T03:10:37.194Z,96.62
2018-01-30T03:11:37.201Z,96.71
2018-01-30T03:12:37.241Z,96.78
2018-01-30T03:13:37.230Z,96.79
2018-01-30T03:14:37.290Z,96.62
2018-01-30T03:15:37.358Z,96.11
2018-01-30T03:16:37.191Z,95.67
2018-01-30T03:17:37.593Z,95.47
2018-01-30T03:18:37.315Z,95.21
2018-01-30T03:19:37.388Z,95.71
2018-01-30T03:20:37.229Z,95.36
2018-01-30T03:21:37.235Z,94.85
2018-01-30T03:22:37.234Z,94.84
2018-01-30T03:23:37.233Z,94.52
2018-01-30T03:24:37.237Z,95.08
2018-01-30T03:25:37.354Z,94.58
2018-01-30T03:26:37.195Z,94.38
2018-01-30T03:27:37.206Z,92.94
2018-01-30T03:28:37.206Z,91.11
2018-01-30T03:29:37.291Z,91.33
2018-01-30T03:30:37.241Z,89.84
2018-01-30T03:31:37.214Z,89.93
2018-01-30T03:32:37.163Z,89.74
2018-01-30T03:33:37.215Z,90.48
2018-01-30T03:34:37.209Z,90.09
2018-01-30T03:35:37.211Z,89
2018-01-30T03:36:37.196Z,87.9
2018-01-30T03:37:37.313Z,88.09
2018-01-30T03:38:37.206Z,88.91
2018-01-30T03:39:37.371Z,89.49
2018-01-30T03:40:37.265Z,88.64
2018-01-30T03:41:37.252Z,88.23
2018-01-30T03:42:37.223Z,89.44
2018-01-30T03:43:37.240Z,89
2018-01-30T03:44:37.270Z,89.45
2018-01-30T03:45:37.233Z,88.05
2018-01-30T03:46:37.245Z,88.04
2018-01-30T03:47:37.215Z,88.81
2018-01-30T03:48:37.243Z,88.91
2018-01-30T03:49:37.261Z,89.21
2018-01-30T03:50:37.232Z,88.84
2018-01-30T03:51:37.242Z,88.93
2018-01-30T03:52:37.228Z,88.8
2018-01-30T03:53:37.191Z,88.88
2018-01-30T03:54:37.227Z,88.74
2018-01-30T03:55:37.176Z,89.04
2018-01-30T03:56:37.269Z,89.55
2018-01-30T03:57:37.245Z,89.37
2018-01-30T03:58:37.264Z,89.69
2018-01-30T03:59:37.247Z,89.4
2018-01-30T04:00:37.244Z,90.51
2018-01-30T04:01:37.201Z,89.03
2018-01-30T04:02:37.260Z,89.54
2018-01-30T04:03:37.386Z,89.33
2018-01-30T04:04:37.253Z,90.03
2018-01-30T04:05:37.249Z,89.59
2018-01-30T04:06:37.227Z,89.05
2018-01-30T04:07:37.277Z,89.77
2018-01-30T04:08:37.321Z,90.06
2018-01-30T04:09:37.268Z,90.35
2018-01-30T04:10:37.264Z,90.13
2018-01-30T04:11:37.996Z,89.53
2018-01-30T04:12:37.311Z,89.3
2018-01-30T04:13:37.289Z,89.68
2018-01-30T04:14:37.293Z,89.75
2018-01-30T04:15:37.262Z,89.8
2018-01-30T04:16:37.237Z,90.79
2018-01-30T04:17:37.304Z,90.93
2018-01-30T04:18:37.291Z,90.38
2018-01-30T04:19:37.259Z,90.34
2018-01-30T04:20:37.292Z,90.58
2018-01-30T04:21:37.330Z,90.26
2018-01-30T04:22:37.234Z,90.07
2018-01-30T04:23:37.322Z,89.46
2018-01-30T04:24:37.258Z,89.77
2018-01-30T04:25:37.264Z,90.14
2018-01-30T04:26:37.305Z,90.71
2018-01-30T04:27:37.296Z,90.46
2018-01-30T04:28:37.291Z,90.36
2018-01-30T04:29:37.299Z,90.56
2018-01-30T04:30:37.304Z,90.8
2018-01-30T04:31:37.300Z,89.83
2018-01-30T04:32:37.293Z,90.54
2018-01-30T04:33:37.263Z,90.29
2018-01-30T04:34:37.283Z,89.14
2018-01-30T04:35:37.276Z,89.82
2018-01-30T04:36:37.258Z,89.59
2018-01-30T04:37:37.358Z,89.26
2018-01-30T04:38:37.286Z,88.95
2018-01-30T04:39:37.330Z,89.41
2018-01-30T04:40:37.300Z,89.69
2018-01-30T04:41:37.307Z,90.05
2018-01-30T04:42:37.418Z,89.64
2018-01-30T04:43:37.380Z,90.4
2018-01-30T04:44:37.379Z,90.18
2018-01-30T04:45:37.281Z,90.48
2018-01-30T04:46:37.312Z,89.48
2018-01-30T04:47:37.283Z,90.07
2018-01-30T04:48:37.275Z,90.36
2018-01-30T04:49:37.296Z,90
2018-01-30T04:50:37.382Z,90.08
2018-01-30T04:51:37.388Z,90.16
2018-01-30T04:52:37.285Z,89.92
2018-01-30T04:53:37.292Z,90.16
2018-01-30T04:54:37.298Z,89.94
2018-01-30T04:55:37.303Z,89.96
2018-01-30T04:56:37.333Z,88.87
2018-01-30T04:57:37.344Z,88.83
2018-01-30T04:58:37.335Z,88.86
2018-01-30T04:59:37.354Z,89.18
2018-01-30T05:00:37.330Z,89.63
2018-01-30T05:01:37.317Z,89.5
2018-01-30T05:02:37.274Z,89.27
2018-01-30T05:03:37.283Z,89.77
2018-01-30T05:04:37.386Z,89.15
2018-01-30T05:05:37.318Z,89.28
2018-01-30T05:06:37.372Z,89.61
2018-01-30T05:07:37.423Z,88.33
2018-01-30T05:08:37.329Z,88.98
2018-01-30T05:09:38.347Z,88.87
2018-01-30T05:10:37.376Z,89.01
2018-01-30T05:11:37.415Z,89.26
2018-01-30T05:12:37.398Z,89.33
2018-01-30T05:13:37.343Z,89.26
2018-01-30T05:14:37.378Z,89.38
2018-01-30T05:15:37.332Z,89.34
2018-01-30T05:16:37.360Z,89.29
2018-01-30T05:17:37.359Z,89.24
2018-01-30T05:18:37.356Z,89.18
2018-01-30T05:19:37.392Z,89.42
2018-01-30T05:20:37.378Z,89.6
2018-01-30T05:21:37.395Z,89.49
2018-01-30T05:22:37.344Z,89.38
2018-01-30T05:23:37.399Z,89.36
2018-01-30T05:24:37.322Z,89.36
2018-01-30T05:25:37.401Z,89.55
2018-01-30T05:26:37.363Z,89.32
2018-01-30T05:27:37.366Z,89.59
2018-01-30T05:28:37.404Z,89.4
2018-01-30T05:29:37.407Z,89.38
2018-01-30T05:30:37.358Z,89.35
2018-01-30T05:31:37.396Z,89.51
2018-01-30T05:32:37.371Z,89.37
2018-01-30T05:33:37.381Z,89.06
2018-01-30T05:34:37.361Z,89.07
2018-01-30T05:35:37.365Z,89.08
2018-01-30T05:36:37.331Z,89.28
2018-01-30T05:39:48.988Z,89.34
2018-01-30T05:40:37.879Z,89.12
2018-01-30T05:41:37.874Z,89.09
2018-01-30T05:42:37.903Z,89.1
2018-01-30T05:43:37.933Z,89.19
2018-01-30T05:44:37.892Z,88.93
2018-01-30T05:45:37.992Z,89.02
2018-01-30T05:46:37.929Z,89.22
2018-01-30T05:47:37.870Z,89.24
2018-01-30T05:48:37.888Z,89.07
2018-01-30T05:49:38.011Z,88.89
2018-01-30T05:50:37.934Z,88.9
2018-01-30T05:51:37.909Z,88.7
2018-01-30T05:52:37.925Z,88.9
2018-01-30T05:53:37.934Z,88.72
2018-01-30T05:54:37.964Z,89.13
2018-01-30T05:55:37.894Z,88.84
2018-01-30T05:56:37.924Z,88.96
2018-01-30T05:57:38.037Z,89.16
2018-01-30T05:58:37.934Z,89.12
2018-01-30T05:59:37.886Z,89.09
2018-01-30T06:00:37.917Z,88.95
2018-01-30T06:01:37.967Z,89.28
2018-01-30T06:02:37.882Z,89.56
2018-01-30T06:03:37.916Z,89.27
2018-01-30T06:04:37.899Z,89.62
2018-01-30T06:05:37.926Z,89.4
2018-01-30T06:06:37.923Z,89.57
2018-01-30T06:08:37.973Z,89.46
2018-01-30T06:09:38.080Z,89.4
2018-01-30T06:10:38.065Z,89.81
2018-01-30T06:11:37.978Z,89.56
2018-01-30T06:12:37.976Z,89.39
2018-01-30T06:13:37.955Z,89.52
2018-01-30T06:14:38.042Z,89.49
2018-01-30T06:15:37.970Z,89.33
2018-01-30T06:16:38.004Z,89.53
2018-01-30T06:17:37.930Z,89.39
2018-01-30T06:18:37.958Z,89.14
2018-01-30T06:19:37.923Z,89.34
2018-01-30T06:20:37.939Z,89.47
2018-01-30T06:21:37.958Z,89.37
2018-01-30T06:22:37.926Z,89.67
2018-01-30T06:23:37.960Z,89.54
2018-01-30T06:24:37.929Z,89.33
2018-01-30T06:25:37.943Z,89.66
2018-01-30T06:26:38.043Z,89.63
2018-01-30T06:27:37.974Z,89.43
2018-01-30T06:28:37.981Z,89.54
2018-01-30T06:29:37.945Z,89.44
2018-01-30T06:30:37.953Z,89.37
2018-01-30T06:31:37.969Z,89.08
2018-01-30T06:32:37.920Z,89.49
2018-01-30T06:33:37.932Z,89.15
2018-01-30T06:34:37.965Z,89.57
2018-01-30T06:35:37.969Z,89.49
2018-01-30T06:36:37.975Z,89.54
2018-01-30T06:37:37.950Z,89.14
2018-01-30T06:38:37.919Z,89.25
2018-01-30T06:39:37.935Z,89.29
2018-01-30T06:40:38.171Z,89.58
2018-01-30T06:41:37.999Z,89.34
2018-01-30T06:42:38.016Z,89.08
2018-01-30T06:43:38.023Z,89.29
2018-01-30T06:44:37.993Z,89.13
2018-01-30T06:45:38.157Z,89.15
2018-01-30T06:46:37.996Z,89.6
2018-01-30T06:47:38.016Z,89.55
2018-01-30T06:48:37.972Z,89.69
2018-01-30T06:49:38.029Z,89.71
2018-01-30T06:50:37.998Z,89.77
2018-01-30T06:51:37.984Z,89.66
2018-01-30T06:52:37.993Z,89.48
2018-01-30T06:53:37.997Z,89.85
2018-01-30T06:54:37.997Z,89.76
2018-01-30T06:55:38.048Z,89.27
2018-01-30T06:56:37.979Z,89.31
2018-01-30T06:57:37.949Z,89.23
2018-01-30T06:58:38.116Z,89.32
2018-01-30T06:59:38.006Z,89.46
2018-01-30T07:00:38.308Z,88.98
2018-01-30T07:01:38.020Z,88.96
2018-01-30T07:02:37.994Z,89.42
2018-01-30T07:03:37.950Z,89.58
2018-01-30T07:04:38.039Z,89.2
2018-01-30T07:05:38.010Z,89.28
2018-01-30T07:06:38.014Z,89.32
2018-01-30T07:07:37.980Z,89.6
2018-01-30T07:08:38.029Z,89.5
2018-01-30T07:09:38.042Z,89.69
2018-01-30T07:10:38.071Z,89.55
2018-01-30T07:11:38.099Z,89.43
2018-01-30T07:12:38.085Z,89.54
2018-01-30T07:13:38.056Z,89.15
2018-01-30T07:14:38.018Z,89.69
2018-01-30T07:15:38.016Z,89.37
2018-01-30T07:16:38.014Z,89.3
2018-01-30T07:17:38.107Z,89.67
2018-01-30T07:18:38.062Z,89.5
2018-01-30T07:19:38.049Z,90.06
2018-01-30T07:20:38.011Z,89.66
2018-01-30T07:21:38.008Z,89.92
2018-01-30T07:22:38.063Z,89.76
2018-01-30T07:23:38.014Z,89.62
2018-01-30T07:24:37.997Z,89.77
2018-01-30T07:25:38.038Z,89.72
2018-01-30T07:26:38.046Z,89.46
2018-01-30T07:27:38.037Z,89.25
2018-01-30T07:28:37.999Z,89.55
2018-01-30T07:29:37.997Z,89.57
2018-01-30T07:30:38.032Z,89.54
2018-01-30T07:31:38.027Z,89.5
2018-01-30T07:32:38.018Z,89.89
2018-01-30T07:33:38.057Z,89.9
2018-01-30T07:34:38.310Z,90.09
2018-01-30T07:35:38.060Z,89.66
2018-01-30T07:36:38.018Z,90.1
2018-01-30T07:37:38.016Z,90.23
2018-01-30T07:38:38.061Z,89.8
2018-01-30T07:39:38.068Z,89.66
2018-01-30T07:40:38.081Z,90.15
2018-01-30T07:41:38.014Z,89.89
2018-01-30T07:42:38.075Z,90.59
2018-01-30T07:43:38.062Z,90.4
2018-01-30T07:44:38.056Z,90.62
2018-01-30T07:45:38.063Z,90.24
2018-01-30T07:46:38.024Z,90.86
2018-01-30T07:47:38.041Z,90.25
2018-01-30T07:48:38.066Z,90.59
2018-01-30T07:49:38.057Z,90.38
2018-01-30T07:50:38.071Z,90.7
2018-01-30T07:51:38.547Z,91.11
2018-01-30T07:52:38.056Z,91.21
2018-01-30T07:53:38.062Z,91.21
2018-01-30T07:54:38.090Z,90.76
2018-01-30T07:55:38.076Z,90.63
2018-01-30T07:56:38.104Z,90.47
2018-01-30T07:57:38.122Z,90.88
2018-01-30T07:58:38.055Z,91.1
2018-01-30T07:59:38.069Z,90.78
2018-01-30T08:00:38.100Z,91.26
2018-01-30T08:01:38.102Z,91.1
2018-01-30T08:02:38.124Z,91.6
2018-01-30T08:03:38.028Z,90.89
2018-01-30T08:04:38.034Z,91.17
2018-01-30T08:05:38.073Z,90.94
2018-01-30T08:06:38.096Z,91.13
2018-01-30T08:07:38.288Z,91.28
2018-01-30T08:08:38.057Z,90.93
2018-01-30T08:09:38.084Z,90.79
2018-01-30T08:10:38.116Z,90.99
2018-01-30T08:11:38.082Z,90.63
2018-01-30T08:12:38.922Z,91.15
2018-01-30T08:13:38.054Z,90.82
2018-01-30T08:14:38.105Z,90.97
2018-01-30T08:15:38.093Z,91.08
2018-01-30T08:16:38.142Z,91.49
2018-01-30T08:17:38.086Z,91.7
2018-01-30T08:18:38.097Z,91.59
2018-01-30T08:19:38.157Z,90.95
2018-01-30T08:20:38.081Z,90.99
2018-01-30T08:21:38.078Z,90.65
2018-01-30T08:22:38.114Z,90.64
2018-01-30T08:23:38.048Z,90.66
2018-01-30T08:24:38.065Z,90.99
2018-01-30T08:25:38.154Z,90.91
2018-01-30T08:26:38.065Z,90.79
2018-01-30T08:27:38.081Z,91.37
2018-01-30T08:28:38.078Z,90.86
2018-01-30T08:29:38.051Z,91.31
2018-01-30T08:30:38.083Z,91.33
2018-01-30T08:31:38.019Z,91.27
2018-01-30T08:32:38.079Z,90.99
2018-01-30T08:33:38.115Z,91.49
2018-01-30T08:34:38.083Z,91.16
2018-01-30T08:35:38.104Z,91.1
2018-01-30T08:36:38.113Z,91.49
2018-01-30T08:37:38.104Z,91.6
2018-01-30T08:38:38.047Z,90.77
2018-01-30T08:39:38.053Z,90.66
2018-01-30T08:40:38.162Z,90.77
2018-01-30T08:41:38.035Z,90.98
2018-01-30T08:42:38.064Z,91.24
2018-01-30T08:43:38.081Z,90.84
2018-01-30T08:44:38.015Z,90.99
2018-01-30T08:45:38.070Z,91.05
2018-01-30T08:46:38.081Z,90.59
2018-01-30T08:47:38.038Z,90.06
2018-01-30T08:48:38.077Z,89.79
2018-01-30T08:49:38.071Z,90.45
2018-01-30T08:50:38.049Z,90.14
2018-01-30T08:51:38.064Z,90.12
2018-01-30T08:52:38.128Z,90.02
2018-01-30T08:53:38.083Z,89.89
2018-01-30T08:54:38.074Z,90.38
2018-01-30T08:55:38.093Z,90.01
2018-01-30T08:56:38.149Z,90.15
2018-01-30T08:57:38.118Z,90.02
2018-01-30T08:58:38.043Z,89.84
2018-01-30T08:59:38.028Z,89.47
2018-01-30T09:00:38.061Z,89.58
2018-01-30T09:01:38.266Z,89.45
2018-01-30T09:02:38.038Z,89.32
2018-01-30T09:03:38.055Z,89.52
2018-01-30T09:04:38.071Z,89.8
2018-01-30T09:05:38.059Z,89.55
2018-01-30T09:06:38.104Z,89.52
2018-01-30T09:07:38.480Z,89.59
2018-01-30T09:08:38.098Z,89.48
2018-01-30T09:09:38.064Z,89.38
2018-01-30T09:10:38.223Z,89.51
2018-01-30T09:11:37.217Z,89.22
2018-01-30T09:12:37.131Z,87.64
2018-01-30T09:13:37.535Z,88.22
2018-01-30T09:14:37.143Z,88.73
2018-01-30T09:15:37.178Z,88.22
2018-01-30T09:16:37.125Z,87.79
2018-01-30T09:17:37.158Z,87.64
2018-01-30T09:18:37.335Z,87.28
2018-01-30T09:19:37.138Z,87.11
2018-01-30T09:20:37.156Z,87.51
2018-01-30T09:21:38.162Z,87.05
2018-01-30T09:22:37.153Z,87.05
2018-01-30T09:23:37.138Z,87.28
2018-01-30T09:24:37.156Z,87.29
2018-01-30T09:25:37.164Z,87.03
2018-01-30T09:26:37.175Z,87.29
2018-01-30T09:27:37.255Z,87.53
2018-01-30T09:28:37.193Z,87.46
2018-01-30T09:29:37.217Z,87.47
2018-01-30T09:30:37.121Z,88.15
2018-01-30T09:31:37.149Z,87.75
2018-01-30T09:32:38.067Z,88.17
2018-01-30T09:33:37.511Z,87.94
2018-01-30T09:34:37.171Z,87.84
2018-01-30T09:35:37.152Z,86.91
2018-01-30T09:36:37.163Z,86.82
2018-01-30T09:37:37.180Z,87.18
2018-01-30T09:38:37.157Z,87.19
2018-01-30T09:39:37.142Z,87.35
2018-01-30T09:40:37.293Z,87.47
2018-01-30T09:41:37.333Z,87.62
2018-01-30T09:42:37.308Z,87.51
2018-01-30T09:43:37.295Z,87.82
2018-01-30T09:44:37.295Z,87.15
2018-01-30T09:45:37.394Z,87.51
2018-01-30T09:46:37.309Z,87.25
2018-01-30T09:47:37.268Z,87.08
2018-01-30T09:48:37.275Z,86.89
2018-01-30T09:49:37.305Z,86.88
2018-01-30T09:50:37.842Z,87.01
2018-01-30T09:51:37.290Z,86.56
2018-01-30T09:52:37.308Z,86.82
2018-01-30T09:53:37.288Z,85.68
2018-01-30T09:54:37.307Z,86.07
2018-01-30T09:55:37.536Z,85.92
2018-01-30T09:56:37.255Z,86.3
2018-01-30T09:57:37.256Z,86.36
2018-01-30T09:58:37.313Z,86.61
2018-01-30T09:59:37.305Z,85.87
2018-01-30T10:00:38.707Z,85.55
2018-01-30T10:01:37.352Z,84.75
2018-01-30T10:02:37.277Z,85.01
2018-01-30T10:03:37.871Z,84.52
2018-01-30T10:04:37.308Z,84.9
2018-01-30T10:05:37.269Z,85.47
2018-01-30T10:06:37.350Z,85.21
2018-01-30T10:07:37.240Z,85.03
2018-01-30T10:08:37.596Z,84.53
2018-01-30T10:09:37.263Z,84.23
2018-01-30T10:10:37.280Z,84.69
2018-01-30T10:11:37.492Z,83.81
2018-01-30T10:12:37.396Z,83.61
2018-01-30T10:13:37.426Z,83.42
2018-01-30T10:14:37.741Z,82.92
2018-01-30T10:15:37.429Z,82.95
2018-01-30T10:16:37.425Z,81.27
2018-01-30T10:17:37.411Z,82.37
2018-01-30T10:18:37.456Z,81.97
2018-01-30T10:19:37.725Z,80.69
2018-01-30T10:20:37.788Z,80.73
2018-01-30T10:21:37.449Z,82.39
2018-01-30T10:22:37.414Z,82.71
2018-01-30T10:23:37.456Z,82.42
2018-01-30T10:24:37.400Z,83.29
2018-01-30T10:25:37.650Z,83.29
2018-01-30T10:26:37.379Z,83.91
2018-01-30T10:27:37.470Z,83.21
2018-01-30T10:28:37.554Z,83.45
2018-01-30T10:29:38.533Z,83.18
2018-01-30T10:30:37.397Z,81.16
2018-01-30T10:31:38.307Z,83.02
2018-01-30T10:32:38.179Z,82.7
2018-01-30T10:33:37.397Z,81.47
2018-01-30T10:34:37.504Z,82.68
2018-01-30T10:35:37.441Z,81.83
2018-01-30T10:36:37.592Z,82.9
2018-01-30T10:37:38.086Z,82.72
2018-01-30T10:38:37.468Z,82.28
2018-01-30T10:39:37.404Z,82.66
2018-01-30T10:40:37.414Z,82.37
2018-01-30T10:41:37.993Z,82.24
2018-01-30T10:42:38.493Z,82
2018-01-30T10:43:37.981Z,82.02
2018-01-30T10:44:37.720Z,81.44
2018-01-30T10:45:37.717Z,80.97
2018-01-30T10:46:37.722Z,81.78
2018-01-30T10:47:37.668Z,82.12
2018-01-30T10:48:37.693Z,80.83
2018-01-30T10:49:37.756Z,81.49
2018-01-30T10:50:37.739Z,81.55
2018-01-30T10:51:37.697Z,80.03
2018-01-30T10:52:37.757Z,80.51
2018-01-30T10:53:37.770Z,81.79
2018-01-30T10:54:37.722Z,81.02
2018-01-30T10:55:38.913Z,81.01
2018-01-30T10:56:37.872Z,80.1
2018-01-30T10:57:37.729Z,80.03
2018-01-30T10:58:37.702Z,80.04
2018-01-30T10:59:37.705Z,79.05
2018-01-30T11:00:37.837Z,78.8
2018-01-30T11:01:38.123Z,79.55
2018-01-30T11:02:37.751Z,80.05
2018-01-30T11:03:37.684Z,79.95
2018-01-30T11:04:37.742Z,79.5
2018-01-30T11:05:37.754Z,79.83
2018-01-30T11:06:38.478Z,80.04
2018-01-30T11:07:37.650Z,80.78
2018-01-30T11:08:37.841Z,79.45
2018-01-30T11:09:37.774Z,78.38
2018-01-30T11:10:37.694Z,77.97
2018-01-30T11:11:38.220Z,78.15
2018-01-30T11:12:37.841Z,77.89
2018-01-30T11:13:37.736Z,77.59
2018-01-30T11:14:37.817Z,78.1
2018-01-30T11:15:37.824Z,78.14
2018-01-30T11:16:38.906Z,77.65
2018-01-30T11:17:37.770Z,77.03
2018-01-30T11:18:38.047Z,77.56
2018-01-30T11:19:37.772Z,78.76
2018-01-30T11:20:37.752Z,78.99
2018-01-30T11:21:37.733Z,77.99
2018-01-30T11:22:37.850Z,76.9
2018-01-30T11:23:37.840Z,76.65
2018-01-30T11:24:37.767Z,75.45
2018-01-30T11:25:37.780Z,75.62
2018-01-30T11:26:37.781Z,76.72
2018-01-30T11:27:38.075Z,76.33
2018-01-30T11:28:37.745Z,77.49
2018-01-30T11:29:37.764Z,77.5
2018-01-30T11:30:37.720Z,78.44
2018-01-30T11:31:37.807Z,78.48
2018-01-30T11:32:37.972Z,77.71
2018-01-30T11:33:37.731Z,77.93
2018-01-30T11:34:37.760Z,78.13
2018-01-30T11:35:37.785Z,77.97
2018-01-30T11:36:37.742Z,78.1
2018-01-30T11:37:37.808Z,78.38
2018-01-30T11:38:37.777Z,78.6
2018-01-30T11:39:37.728Z,78.53
2018-01-30T11:40:37.775Z,78.35
2018-01-30T11:41:38.509Z,77.87
2018-01-30T11:42:37.561Z,78.63
2018-01-30T11:43:37.505Z,78.38
2018-01-30T11:44:37.533Z,78.68
2018-01-30T11:45:37.517Z,77.66
2018-01-30T11:46:37.508Z,76.37
2018-01-30T11:47:37.478Z,77.28
2018-01-30T11:48:37.524Z,78.2
2018-01-30T11:49:37.547Z,78.66
2018-01-30T11:50:37.538Z,78.54
2018-01-30T11:51:37.447Z,78.69
2018-01-30T11:52:37.454Z,79.09
2018-01-30T11:53:37.506Z,79.1
2018-01-30T11:54:37.603Z,79
2018-01-30T11:55:37.487Z,79.06
2018-01-30T11:56:37.501Z,77.34
2018-01-30T11:57:37.480Z,77.52
2018-01-30T11:58:37.545Z,77.25
2018-01-30T11:59:38.023Z,77.46
2018-01-30T12:00:37.531Z,78.87
2018-01-30T12:01:37.508Z,78.68
2018-01-30T12:02:37.547Z,78.01
2018-01-30T12:03:37.512Z,79.16
2018-01-30T12:04:37.802Z,78.06
2018-01-30T12:05:37.681Z,77.82
2018-01-30T12:06:37.519Z,78.62
2018-01-30T12:07:37.492Z,78.27
2018-01-30T12:08:37.543Z,78.63
2018-01-30T12:09:37.493Z,78.01
2018-01-30T12:10:37.574Z,77.24
2018-01-30T12:11:37.541Z,77.91
2018-01-30T12:12:37.791Z,79.26
2018-01-30T12:13:37.685Z,78.42
2018-01-30T12:14:37.646Z,78.43
2018-01-30T12:15:37.656Z,78.82
2018-01-30T12:16:37.643Z,77.24
2018-01-30T12:17:37.625Z,76.53
2018-01-30T12:18:37.650Z,77.03
2018-01-30T12:19:37.673Z,78.46
2018-01-30T12:20:37.703Z,78.3
2018-01-30T12:21:37.621Z,78.18
2018-01-30T12:22:37.660Z,76.66
2018-01-30T12:23:37.668Z,76.69
2018-01-30T12:24:37.674Z,76.5
2018-01-30T12:25:37.673Z,76.01
2018-01-30T12:26:37.669Z,76.66
2018-01-30T12:27:37.663Z,76.6
2018-01-30T12:28:37.656Z,76.99
2018-01-30T12:29:37.665Z,76.8
2018-01-30T12:30:37.639Z,76.49
2018-01-30T12:31:37.647Z,76.72
2018-01-30T12:32:37.683Z,76.9
2018-01-30T12:33:38.217Z,76.04
2018-01-30T12:34:37.682Z,77.44
2018-01-30T12:35:37.687Z,77.43
2018-01-30T12:36:37.734Z,77.89
2018-01-30T12:37:37.857Z,77.86
2018-01-30T12:38:37.626Z,77.76
2018-01-30T12:39:37.695Z,76.95
2018-01-30T12:40:37.648Z,77.88
2018-01-30T12:41:37.831Z,77.38
2018-01-30T12:42:38.071Z,77.54
2018-01-30T12:43:37.689Z,76.75
2018-01-30T12:44:37.728Z,77.89
2018-01-30T12:45:37.710Z,76.93
2018-01-30T12:46:37.702Z,76
2018-01-30T12:47:37.763Z,75.68
2018-01-30T12:48:37.685Z,76.76
2018-01-30T12:49:37.680Z,77.06
2018-01-30T12:50:37.743Z,77.41
2018-01-30T12:51:37.806Z,77.68
2018-01-30T12:52:37.664Z,77.08
2018-01-30T12:53:37.737Z,76.82
2018-01-30T12:54:37.699Z,75.52
2018-01-30T12:55:37.695Z,76.71
2018-01-30T12:56:37.778Z,76.53
2018-01-30T12:57:37.684Z,77.69
2018-01-30T12:58:37.741Z,77.32